sensor_id;sensor_type;location;lat;lon;timestamp;P1;durP1;ratioP1;P2;durP2;ratioP2
13872;SDS011;7006;51.494;11.964;2022-09-23T00:01:32;10.00;;;8.33;;
13872;SDS011;7006;51.494;11.964;2022-09-23T00:03:58;11.63;;;9.37;;
13872;SDS011;7006;51.494;11.964;2022-09-23T00:06:25;11.73;;;8.40;;
13872;SDS011;7006;51.494;11.964;2022-09-23T00:08:52;11.40;;;8.47;;
13872;SDS011;7006;51.494;11.964;2022-09-23T00:11:19;12.17;;;8.40;;
13872;SDS011;7006;51.494;11.964;2022-09-23T00:13:47;9.93;;;8.37;;
13872;SDS011;7006;51.494;11.964;2022-09-23T00:16:15;10.43;;;7.80;;
13872;SDS011;7006;51.494;11.964;2022-09-23T00:18:43;11.00;;;7.83;;
13872;SDS011;7006;51.494;11.964;2022-09-23T00:21:11;10.13;;;8.10;;
13872;SDS011;7006;51.494;11.964;2022-09-23T00:23:37;12.20;;;7.50;;
13872;SDS011;7006;51.494;11.964;2022-09-23T00:26:05;9.03;;;7.47;;
13872;SDS011;7006;51.494;11.964;2022-09-23T00:28:32;10.60;;;8.20;;
13872;SDS011;7006;51.494;11.964;2022-09-23T00:31:00;9.70;;;8.00;;
13872;SDS011;7006;51.494;11.964;2022-09-23T00:33:26;11.33;;;8.60;;
13872;SDS011;7006;51.494;11.964;2022-09-23T00:35:58;14.37;;;8.30;;
13872;SDS011;7006;51.494;11.964;2022-09-23T00:38:24;10.17;;;8.20;;
13872;SDS011;7006;51.494;11.964;2022-09-23T00:40:51;10.40;;;7.37;;
13872;SDS011;7006;51.494;11.964;2022-09-23T00:43:17;8.53;;;7.53;;
13872;SDS011;7006;51.494;11.964;2022-09-23T00:45:44;10.53;;;8.50;;
13872;SDS011;7006;51.494;11.964;2022-09-23T00:48:12;12.50;;;8.00;;
13872;SDS011;7006;51.494;11.964;2022-09-23T00:50:41;13.23;;;8.40;;
13872;SDS011;7006;51.494;11.964;2022-09-23T00:53:10;10.30;;;7.70;;
13872;SDS011;7006;51.494;11.964;2022-09-23T00:55:38;10.60;;;8.10;;
13872;SDS011;7006;51.494;11.964;2022-09-23T00:58:05;10.07;;;7.80;;
13872;SDS011;7006;51.494;11.964;2022-09-23T01:00:32;9.57;;;7.77;;
13872;SDS011;7006;51.494;11.964;2022-09-23T01:02:59;9.47;;;7.87;;
13872;SDS011;7006;51.494;11.964;2022-09-23T01:05:26;10.10;;;7.40;;
13872;SDS011;7006;51.494;11.964;2022-09-23T01:07:52;10.40;;;7.60;;
13872;SDS011;7006;51.494;11.964;2022-09-23T01:10:23;9.53;;;8.20;;
13872;SDS011;7006;51.494;11.964;2022-09-23T01:12:52;9.63;;;8.57;;
13872;SDS011;7006;51.494;11.964;2022-09-23T01:15:23;11.60;;;9.03;;
13872;SDS011;7006;51.494;11.964;2022-09-23T01:17:53;11.77;;;9.33;;
13872;SDS011;7006;51.494;11.964;2022-09-23T01:23:12;9.97;;;8.23;;
13872;SDS011;7006;51.494;11.964;2022-09-23T01:25:51;7.80;;;7.07;;
13872;SDS011;7006;51.494;11.964;2022-09-23T01:28:31;12.00;;;8.10;;
13872;SDS011;7006;51.494;11.964;2022-09-23T01:31:08;9.77;;;8.50;;
13872;SDS011;7006;51.494;11.964;2022-09-23T01:33:37;10.83;;;8.10;;
13872;SDS011;7006;51.494;11.964;2022-09-23T01:36:09;8.93;;;7.77;;
13872;SDS011;7006;51.494;11.964;2022-09-23T01:38:41;9.57;;;7.80;;
13872;SDS011;7006;51.494;11.964;2022-09-23T01:41:12;9.93;;;8.40;;
13872;SDS011;7006;51.494;11.964;2022-09-23T01:43:41;9.63;;;8.10;;
13872;SDS011;7006;51.494;11.964;2022-09-23T01:46:10;11.53;;;8.73;;
13872;SDS011;7006;51.494;11.964;2022-09-23T01:48:39;10.40;;;8.50;;
13872;SDS011;7006;51.494;11.964;2022-09-23T01:51:09;10.13;;;8.40;;
13872;SDS011;7006;51.494;11.964;2022-09-23T01:53:38;10.90;;;9.43;;
13872;SDS011;7006;51.494;11.964;2022-09-23T01:56:09;11.87;;;9.57;;
13872;SDS011;7006;51.494;11.964;2022-09-23T01:58:38;11.30;;;9.27;;
13872;SDS011;7006;51.494;11.964;2022-09-23T02:01:07;12.07;;;9.80;;
13872;SDS011;7006;51.494;11.964;2022-09-23T02:03:40;11.57;;;8.80;;
13872;SDS011;7006;51.494;11.964;2022-09-23T02:06:09;12.80;;;9.70;;
13872;SDS011;7006;51.494;11.964;2022-09-23T02:08:36;11.17;;;9.93;;
13872;SDS011;7006;51.494;11.964;2022-09-23T02:11:07;10.13;;;9.10;;
13872;SDS011;7006;51.494;11.964;2022-09-23T02:13:36;11.03;;;9.57;;
13872;SDS011;7006;51.494;11.964;2022-09-23T02:16:05;10.90;;;9.20;;
13872;SDS011;7006;51.494;11.964;2022-09-23T02:18:35;10.70;;;8.23;;
13872;SDS011;7006;51.494;11.964;2022-09-23T02:21:07;12.90;;;9.30;;
13872;SDS011;7006;51.494;11.964;2022-09-23T02:23:35;11.30;;;8.37;;
13872;SDS011;7006;51.494;11.964;2022-09-23T02:26:05;9.33;;;8.27;;
13872;SDS011;7006;51.494;11.964;2022-09-23T02:28:35;13.70;;;9.10;;
13872;SDS011;7006;51.494;11.964;2022-09-23T02:31:06;14.20;;;8.60;;
13872;SDS011;7006;51.494;11.964;2022-09-23T02:33:36;11.00;;;9.80;;
13872;SDS011;7006;51.494;11.964;2022-09-23T02:36:05;11.30;;;9.83;;
13872;SDS011;7006;51.494;11.964;2022-09-23T02:38:35;11.67;;;8.33;;
13872;SDS011;7006;51.494;11.964;2022-09-23T02:41:03;10.47;;;8.70;;
13872;SDS011;7006;51.494;11.964;2022-09-23T02:43:33;11.37;;;9.80;;
13872;SDS011;7006;51.494;11.964;2022-09-23T02:46:03;11.30;;;9.17;;
13872;SDS011;7006;51.494;11.964;2022-09-23T02:48:30;12.30;;;9.40;;
13872;SDS011;7006;51.494;11.964;2022-09-23T02:50:58;12.23;;;9.87;;
13872;SDS011;7006;51.494;11.964;2022-09-23T02:53:26;12.30;;;10.63;;
13872;SDS011;7006;51.494;11.964;2022-09-23T02:55:54;14.27;;;11.00;;
13872;SDS011;7006;51.494;11.964;2022-09-23T02:58:20;13.63;;;9.70;;
13872;SDS011;7006;51.494;11.964;2022-09-23T03:00:48;12.40;;;9.37;;
13872;SDS011;7006;51.494;11.964;2022-09-23T03:03:28;12.13;;;9.60;;
13872;SDS011;7006;51.494;11.964;2022-09-23T03:05:57;9.80;;;8.80;;
13872;SDS011;7006;51.494;11.964;2022-09-23T03:08:27;10.50;;;9.40;;
13872;SDS011;7006;51.494;11.964;2022-09-23T03:10:57;11.37;;;9.13;;
13872;SDS011;7006;51.494;11.964;2022-09-23T03:13:29;10.90;;;9.60;;
13872;SDS011;7006;51.494;11.964;2022-09-23T03:15:59;12.40;;;9.57;;
13872;SDS011;7006;51.494;11.964;2022-09-23T03:18:30;12.53;;;10.33;;
13872;SDS011;7006;51.494;11.964;2022-09-23T03:21:00;11.37;;;10.17;;
13872;SDS011;7006;51.494;11.964;2022-09-23T03:23:28;13.07;;;9.90;;
13872;SDS011;7006;51.494;11.964;2022-09-23T03:25:59;12.87;;;10.40;;
13872;SDS011;7006;51.494;11.964;2022-09-23T03:28:26;11.77;;;9.63;;
13872;SDS011;7006;51.494;11.964;2022-09-23T03:30:53;12.23;;;10.47;;
13872;SDS011;7006;51.494;11.964;2022-09-23T03:33:21;11.73;;;9.60;;
13872;SDS011;7006;51.494;11.964;2022-09-23T03:35:52;14.17;;;10.30;;
13872;SDS011;7006;51.494;11.964;2022-09-23T03:38:38;12.13;;;9.47;;
13872;SDS011;7006;51.494;11.964;2022-09-23T03:41:08;11.87;;;9.87;;
13872;SDS011;7006;51.494;11.964;2022-09-23T03:43:36;10.87;;;9.10;;
13872;SDS011;7006;51.494;11.964;2022-09-23T03:46:02;13.87;;;11.23;;
13872;SDS011;7006;51.494;11.964;2022-09-23T03:48:30;15.33;;;12.13;;
13872;SDS011;7006;51.494;11.964;2022-09-23T03:50:57;14.00;;;11.60;;
13872;SDS011;7006;51.494;11.964;2022-09-23T03:53:24;14.23;;;11.60;;
13872;SDS011;7006;51.494;11.964;2022-09-23T03:55:50;13.03;;;10.93;;
13872;SDS011;7006;51.494;11.964;2022-09-23T03:58:18;15.50;;;10.50;;
13872;SDS011;7006;51.494;11.964;2022-09-23T04:00:44;11.00;;;9.33;;
13872;SDS011;7006;51.494;11.964;2022-09-23T04:03:11;13.73;;;10.53;;
13872;SDS011;7006;51.494;11.964;2022-09-23T04:05:37;12.10;;;10.60;;
13872;SDS011;7006;51.494;11.964;2022-09-23T04:08:03;12.67;;;10.63;;
13872;SDS011;7006;51.494;11.964;2022-09-23T04:10:30;14.50;;;10.00;;
13872;SDS011;7006;51.494;11.964;2022-09-23T04:12:56;11.60;;;9.93;;
13872;SDS011;7006;51.494;11.964;2022-09-23T04:15:24;11.23;;;10.03;;
13872;SDS011;7006;51.494;11.964;2022-09-23T04:17:50;12.10;;;10.80;;
13872;SDS011;7006;51.494;11.964;2022-09-23T04:20:17;12.10;;;10.80;;
13872;SDS011;7006;51.494;11.964;2022-09-23T04:22:43;12.10;;;10.40;;
13872;SDS011;7006;51.494;11.964;2022-09-23T04:25:09;12.47;;;10.20;;
13872;SDS011;7006;51.494;11.964;2022-09-23T04:27:35;12.40;;;10.20;;
13872;SDS011;7006;51.494;11.964;2022-09-23T04:30:03;13.40;;;11.13;;
13872;SDS011;7006;51.494;11.964;2022-09-23T04:32:31;13.60;;;10.80;;
13872;SDS011;7006;51.494;11.964;2022-09-23T04:34:58;12.80;;;10.53;;
13872;SDS011;7006;51.494;11.964;2022-09-23T04:37:24;13.23;;;9.97;;
13872;SDS011;7006;51.494;11.964;2022-09-23T04:39:50;12.20;;;10.57;;
13872;SDS011;7006;51.494;11.964;2022-09-23T04:42:17;13.27;;;10.60;;
13872;SDS011;7006;51.494;11.964;2022-09-23T04:44:43;18.60;;;13.00;;
13872;SDS011;7006;51.494;11.964;2022-09-23T04:47:09;11.80;;;9.87;;
13872;SDS011;7006;51.494;11.964;2022-09-23T04:49:37;12.67;;;10.70;;
13872;SDS011;7006;51.494;11.964;2022-09-23T04:52:04;12.20;;;9.97;;
13872;SDS011;7006;51.494;11.964;2022-09-23T04:54:30;12.87;;;10.20;;
13872;SDS011;7006;51.494;11.964;2022-09-23T04:56:56;14.23;;;10.60;;
13872;SDS011;7006;51.494;11.964;2022-09-23T04:59:23;12.83;;;10.23;;
13872;SDS011;7006;51.494;11.964;2022-09-23T05:01:49;12.90;;;10.70;;
13872;SDS011;7006;51.494;11.964;2022-09-23T05:04:18;13.37;;;11.23;;
13872;SDS011;7006;51.494;11.964;2022-09-23T05:06:46;17.07;;;15.33;;
13872;SDS011;7006;51.494;11.964;2022-09-23T05:09:14;16.20;;;14.60;;
13872;SDS011;7006;51.494;11.964;2022-09-23T05:11:41;12.23;;;11.00;;
13872;SDS011;7006;51.494;11.964;2022-09-23T05:14:07;14.57;;;10.87;;
13872;SDS011;7006;51.494;11.964;2022-09-23T05:16:34;11.80;;;9.90;;
13872;SDS011;7006;51.494;11.964;2022-09-23T05:19:00;15.27;;;11.07;;
13872;SDS011;7006;51.494;11.964;2022-09-23T05:21:27;14.57;;;11.10;;
13872;SDS011;7006;51.494;11.964;2022-09-23T05:23:57;14.93;;;11.40;;
13872;SDS011;7006;51.494;11.964;2022-09-23T05:26:25;14.70;;;11.53;;
13872;SDS011;7006;51.494;11.964;2022-09-23T05:28:51;15.70;;;12.30;;
13872;SDS011;7006;51.494;11.964;2022-09-23T05:31:18;14.87;;;12.90;;
13872;SDS011;7006;51.494;11.964;2022-09-23T05:33:45;19.80;;;14.30;;
13872;SDS011;7006;51.494;11.964;2022-09-23T05:36:12;20.93;;;16.03;;
13872;SDS011;7006;51.494;11.964;2022-09-23T05:38:41;23.43;;;16.87;;
13872;SDS011;7006;51.494;11.964;2022-09-23T05:41:09;29.60;;;21.27;;
13872;SDS011;7006;51.494;11.964;2022-09-23T05:43:36;34.00;;;24.10;;
13872;SDS011;7006;51.494;11.964;2022-09-23T05:46:03;25.80;;;18.13;;
13872;SDS011;7006;51.494;11.964;2022-09-23T05:48:30;25.73;;;17.80;;
13872;SDS011;7006;51.494;11.964;2022-09-23T05:50:56;26.63;;;18.63;;
13872;SDS011;7006;51.494;11.964;2022-09-23T05:53:23;27.13;;;20.63;;
13872;SDS011;7006;51.494;11.964;2022-09-23T05:55:49;18.70;;;15.00;;
13872;SDS011;7006;51.494;11.964;2022-09-23T05:58:19;37.40;;;26.40;;
13872;SDS011;7006;51.494;11.964;2022-09-23T06:00:47;19.53;;;16.07;;
13872;SDS011;7006;51.494;11.964;2022-09-23T06:03:14;21.07;;;13.47;;
13872;SDS011;7006;51.494;11.964;2022-09-23T06:05:41;19.57;;;14.40;;
13872;SDS011;7006;51.494;11.964;2022-09-23T06:08:08;22.03;;;15.40;;
13872;SDS011;7006;51.494;11.964;2022-09-23T06:10:35;16.87;;;13.23;;
13872;SDS011;7006;51.494;11.964;2022-09-23T06:13:01;18.30;;;12.83;;
13872;SDS011;7006;51.494;11.964;2022-09-23T06:15:29;16.30;;;14.00;;
13872;SDS011;7006;51.494;11.964;2022-09-23T06:17:55;16.10;;;13.73;;
13872;SDS011;7006;51.494;11.964;2022-09-23T06:20:21;18.83;;;14.00;;
13872;SDS011;7006;51.494;11.964;2022-09-23T06:22:48;19.00;;;13.73;;
13872;SDS011;7006;51.494;11.964;2022-09-23T06:25:14;21.47;;;14.10;;
13872;SDS011;7006;51.494;11.964;2022-09-23T06:27:43;26.07;;;15.97;;
13872;SDS011;7006;51.494;11.964;2022-09-23T06:30:10;26.00;;;15.43;;
13872;SDS011;7006;51.494;11.964;2022-09-23T06:32:38;25.87;;;15.43;;
13872;SDS011;7006;51.494;11.964;2022-09-23T06:35:04;16.73;;;14.57;;
13872;SDS011;7006;51.494;11.964;2022-09-23T06:37:31;17.83;;;15.50;;
13872;SDS011;7006;51.494;11.964;2022-09-23T06:39:57;19.10;;;13.70;;
13872;SDS011;7006;51.494;11.964;2022-09-23T06:42:23;20.73;;;16.00;;
13872;SDS011;7006;51.494;11.964;2022-09-23T06:44:50;17.43;;;15.50;;
13872;SDS011;7006;51.494;11.964;2022-09-23T06:47:16;16.33;;;14.20;;
13872;SDS011;7006;51.494;11.964;2022-09-23T06:49:44;20.63;;;15.20;;
13872;SDS011;7006;51.494;11.964;2022-09-23T06:52:10;18.17;;;15.23;;
13872;SDS011;7006;51.494;11.964;2022-09-23T06:54:37;17.03;;;14.47;;
13872;SDS011;7006;51.494;11.964;2022-09-23T06:57:03;16.10;;;14.30;;
13872;SDS011;7006;51.494;11.964;2022-09-23T06:59:29;16.53;;;14.70;;
13872;SDS011;7006;51.494;11.964;2022-09-23T07:01:56;16.10;;;14.30;;
13872;SDS011;7006;51.494;11.964;2022-09-23T07:04:22;17.87;;;14.50;;
13872;SDS011;7006;51.494;11.964;2022-09-23T07:06:50;15.93;;;12.93;;
13872;SDS011;7006;51.494;11.964;2022-09-23T07:09:18;15.47;;;12.87;;
13872;SDS011;7006;51.494;11.964;2022-09-23T07:11:45;17.00;;;13.40;;
13872;SDS011;7006;51.494;11.964;2022-09-23T07:14:11;15.90;;;13.17;;
13872;SDS011;7006;51.494;11.964;2022-09-23T07:16:38;15.33;;;12.73;;
13872;SDS011;7006;51.494;11.964;2022-09-23T07:19:05;14.60;;;13.10;;
13872;SDS011;7006;51.494;11.964;2022-09-23T07:21:32;16.30;;;12.73;;
13872;SDS011;7006;51.494;11.964;2022-09-23T07:24:00;14.40;;;12.90;;
13872;SDS011;7006;51.494;11.964;2022-09-23T07:26:26;14.67;;;12.50;;
13872;SDS011;7006;51.494;11.964;2022-09-23T07:28:53;17.97;;;13.93;;
13872;SDS011;7006;51.494;11.964;2022-09-23T07:31:20;14.97;;;13.37;;
13872;SDS011;7006;51.494;11.964;2022-09-23T07:33:47;16.80;;;14.97;;
13872;SDS011;7006;51.494;11.964;2022-09-23T07:36:15;16.00;;;14.00;;
13872;SDS011;7006;51.494;11.964;2022-09-23T07:38:42;16.10;;;14.50;;
13872;SDS011;7006;51.494;11.964;2022-09-23T07:41:10;16.10;;;14.50;;
13872;SDS011;7006;51.494;11.964;2022-09-23T07:43:37;18.80;;;15.63;;
13872;SDS011;7006;51.494;11.964;2022-09-23T07:46:05;16.97;;;15.23;;
13872;SDS011;7006;51.494;11.964;2022-09-23T07:48:33;21.03;;;15.83;;
13872;SDS011;7006;51.494;11.964;2022-09-23T07:51:04;17.77;;;16.00;;
13872;SDS011;7006;51.494;11.964;2022-09-23T07:53:31;20.80;;;14.93;;
13872;SDS011;7006;51.494;11.964;2022-09-23T07:55:57;20.37;;;15.30;;
13872;SDS011;7006;51.494;11.964;2022-09-23T07:58:25;15.17;;;13.57;;
13872;SDS011;7006;51.494;11.964;2022-09-23T08:00:51;15.50;;;13.83;;
13872;SDS011;7006;51.494;11.964;2022-09-23T08:03:18;16.70;;;13.30;;
13872;SDS011;7006;51.494;11.964;2022-09-23T08:05:44;17.03;;;14.13;;
13872;SDS011;7006;51.494;11.964;2022-09-23T08:08:11;13.90;;;12.17;;
13872;SDS011;7006;51.494;11.964;2022-09-23T08:10:38;14.17;;;12.10;;
13872;SDS011;7006;51.494;11.964;2022-09-23T08:13:04;15.30;;;12.20;;
13872;SDS011;7006;51.494;11.964;2022-09-23T08:15:32;13.13;;;10.50;;
13872;SDS011;7006;51.494;11.964;2022-09-23T08:17:58;12.10;;;10.80;;
13872;SDS011;7006;51.494;11.964;2022-09-23T08:20:25;10.90;;;9.73;;
13872;SDS011;7006;51.494;11.964;2022-09-23T08:23:11;11.57;;;10.37;;
13872;SDS011;7006;51.494;11.964;2022-09-23T08:25:38;12.00;;;10.10;;
13872;SDS011;7006;51.494;11.964;2022-09-23T08:28:05;11.53;;;10.20;;
13872;SDS011;7006;51.494;11.964;2022-09-23T08:30:33;10.67;;;9.57;;
13872;SDS011;7006;51.494;11.964;2022-09-23T08:32:59;10.20;;;9.30;;
13872;SDS011;7006;51.494;11.964;2022-09-23T08:35:26;10.13;;;9.10;;
13872;SDS011;7006;51.494;11.964;2022-09-23T08:37:52;13.00;;;11.60;;
13872;SDS011;7006;51.494;11.964;2022-09-23T08:40:18;11.43;;;9.43;;
13872;SDS011;7006;51.494;11.964;2022-09-23T08:42:45;10.57;;;9.47;;
13872;SDS011;7006;51.494;11.964;2022-09-23T08:45:14;9.93;;;8.63;;
13872;SDS011;7006;51.494;11.964;2022-09-23T08:47:44;10.27;;;9.27;;
13872;SDS011;7006;51.494;11.964;2022-09-23T08:50:12;10.60;;;8.80;;
13872;SDS011;7006;51.494;11.964;2022-09-23T08:52:43;10.13;;;9.00;;
13872;SDS011;7006;51.494;11.964;2022-09-23T08:55:13;9.73;;;8.07;;
13872;SDS011;7006;51.494;11.964;2022-09-23T08:57:42;13.77;;;11.37;;
13872;SDS011;7006;51.494;11.964;2022-09-23T09:00:12;9.70;;;7.53;;
13872;SDS011;7006;51.494;11.964;2022-09-23T09:02:39;9.37;;;6.90;;
13872;SDS011;7006;51.494;11.964;2022-09-23T09:05:07;8.93;;;8.03;;
13872;SDS011;7006;51.494;11.964;2022-09-23T09:07:36;7.30;;;6.50;;
13872;SDS011;7006;51.494;11.964;2022-09-23T09:10:04;9.30;;;6.20;;
13872;SDS011;7006;51.494;11.964;2022-09-23T09:12:32;7.30;;;5.80;;
13872;SDS011;7006;51.494;11.964;2022-09-23T09:15:00;6.00;;;5.30;;
13872;SDS011;7006;51.494;11.964;2022-09-23T09:17:28;9.20;;;6.23;;
13872;SDS011;7006;51.494;11.964;2022-09-23T09:20:01;9.30;;;5.67;;
13872;SDS011;7006;51.494;11.964;2022-09-23T09:22:36;6.80;;;5.57;;
13872;SDS011;7006;51.494;11.964;2022-09-23T09:25:08;6.80;;;6.10;;
13872;SDS011;7006;51.494;11.964;2022-09-23T09:27:37;6.13;;;5.53;;
13872;SDS011;7006;51.494;11.964;2022-09-23T09:30:07;5.50;;;4.87;;
13872;SDS011;7006;51.494;11.964;2022-09-23T09:32:37;6.47;;;5.80;;
13872;SDS011;7006;51.494;11.964;2022-09-23T09:35:14;6.10;;;5.10;;
13872;SDS011;7006;51.494;11.964;2022-09-23T09:37:46;7.20;;;5.10;;
13872;SDS011;7006;51.494;11.964;2022-09-23T09:40:13;10.00;;;5.50;;
13872;SDS011;7006;51.494;11.964;2022-09-23T09:42:41;7.00;;;5.37;;
13872;SDS011;7006;51.494;11.964;2022-09-23T09:45:11;6.17;;;4.80;;
13872;SDS011;7006;51.494;11.964;2022-09-23T09:47:40;7.30;;;4.60;;
13872;SDS011;7006;51.494;11.964;2022-09-23T09:50:11;5.77;;;5.17;;
13872;SDS011;7006;51.494;11.964;2022-09-23T09:52:47;5.50;;;4.33;;
13872;SDS011;7006;51.494;11.964;2022-09-23T09:55:15;7.53;;;5.00;;
13872;SDS011;7006;51.494;11.964;2022-09-23T09:57:43;5.23;;;4.73;;
13872;SDS011;7006;51.494;11.964;2022-09-23T10:00:16;6.30;;;5.47;;
13872;SDS011;7006;51.494;11.964;2022-09-23T10:02:43;6.30;;;5.27;;
13872;SDS011;7006;51.494;11.964;2022-09-23T10:05:21;6.20;;;5.10;;
13872;SDS011;7006;51.494;11.964;2022-09-23T10:07:49;5.97;;;4.67;;
13872;SDS011;7006;51.494;11.964;2022-09-23T10:10:16;4.70;;;3.80;;
13872;SDS011;7006;51.494;11.964;2022-09-23T10:12:44;5.30;;;3.90;;
13872;SDS011;7006;51.494;11.964;2022-09-23T10:15:25;5.00;;;4.50;;
13872;SDS011;7006;51.494;11.964;2022-09-23T10:17:51;6.87;;;3.93;;
13872;SDS011;7006;51.494;11.964;2022-09-23T10:20:18;5.67;;;4.20;;
13872;SDS011;7006;51.494;11.964;2022-09-23T10:22:44;5.37;;;4.20;;
13872;SDS011;7006;51.494;11.964;2022-09-23T10:25:15;4.77;;;4.33;;
13872;SDS011;7006;51.494;11.964;2022-09-23T10:27:44;4.83;;;3.87;;
13872;SDS011;7006;51.494;11.964;2022-09-23T10:30:18;6.33;;;3.93;;
13872;SDS011;7006;51.494;11.964;2022-09-23T10:32:46;6.70;;;4.13;;
13872;SDS011;7006;51.494;11.964;2022-09-23T10:35:14;6.20;;;4.33;;
13872;SDS011;7006;51.494;11.964;2022-09-23T10:37:42;4.90;;;3.57;;
13872;SDS011;7006;51.494;11.964;2022-09-23T10:40:17;6.40;;;3.83;;
13872;SDS011;7006;51.494;11.964;2022-09-23T10:43:15;6.07;;;4.00;;
13872;SDS011;7006;51.494;11.964;2022-09-23T10:46:13;4.40;;;3.97;;
13872;SDS011;7006;51.494;11.964;2022-09-23T10:49:03;5.43;;;4.60;;
13872;SDS011;7006;51.494;11.964;2022-09-23T10:51:34;6.13;;;5.10;;
13872;SDS011;7006;51.494;11.964;2022-09-23T10:54:06;4.47;;;4.07;;
13872;SDS011;7006;51.494;11.964;2022-09-23T10:56:38;4.77;;;4.30;;
13872;SDS011;7006;51.494;11.964;2022-09-23T11:01:54;5.33;;;4.23;;
13872;SDS011;7006;51.494;11.964;2022-09-23T11:04:29;5.00;;;4.10;;
13872;SDS011;7006;51.494;11.964;2022-09-23T11:07:07;4.43;;;3.97;;
13872;SDS011;7006;51.494;11.964;2022-09-23T11:09:40;5.33;;;4.83;;
13872;SDS011;7006;51.494;11.964;2022-09-23T11:12:15;5.20;;;4.70;;
13872;SDS011;7006;51.494;11.964;2022-09-23T11:14:49;6.10;;;4.60;;
13872;SDS011;7006;51.494;11.964;2022-09-23T11:22:57;4.33;;;3.83;;
13872;SDS011;7006;51.494;11.964;2022-09-23T11:25:30;5.80;;;3.80;;
13872;SDS011;7006;51.494;11.964;2022-09-23T11:28:08;4.10;;;3.30;;
13872;SDS011;7006;51.494;11.964;2022-09-23T11:30:42;5.40;;;4.30;;
13872;SDS011;7006;51.494;11.964;2022-09-23T11:33:18;4.47;;;3.87;;
13872;SDS011;7006;51.494;11.964;2022-09-23T11:35:46;4.17;;;3.60;;
13872;SDS011;7006;51.494;11.964;2022-09-23T11:38:15;4.80;;;3.80;;
13872;SDS011;7006;51.494;11.964;2022-09-23T11:40:45;4.60;;;4.20;;
13872;SDS011;7006;51.494;11.964;2022-09-23T11:43:20;3.83;;;3.23;;
13872;SDS011;7006;51.494;11.964;2022-09-23T11:45:48;6.53;;;3.77;;
13872;SDS011;7006;51.494;11.964;2022-09-23T11:48:28;4.47;;;3.47;;
13872;SDS011;7006;51.494;11.964;2022-09-23T11:50:56;4.30;;;3.50;;
13872;SDS011;7006;51.494;11.964;2022-09-23T11:53:26;5.20;;;4.10;;
13872;SDS011;7006;51.494;11.964;2022-09-23T11:55:55;5.03;;;3.77;;
13872;SDS011;7006;51.494;11.964;2022-09-23T11:58:28;3.97;;;3.50;;
13872;SDS011;7006;51.494;11.964;2022-09-23T12:00:59;4.53;;;3.50;;
13872;SDS011;7006;51.494;11.964;2022-09-23T12:03:31;4.20;;;3.70;;
13872;SDS011;7006;51.494;11.964;2022-09-23T12:06:01;4.50;;;4.10;;
13872;SDS011;7006;51.494;11.964;2022-09-23T12:08:29;6.70;;;4.90;;
13872;SDS011;7006;51.494;11.964;2022-09-23T12:11:00;6.40;;;3.87;;
13872;SDS011;7006;51.494;11.964;2022-09-23T12:13:32;4.17;;;3.77;;
13872;SDS011;7006;51.494;11.964;2022-09-23T12:16:03;3.90;;;3.47;;
13872;SDS011;7006;51.494;11.964;2022-09-23T12:18:35;4.30;;;3.40;;
13872;SDS011;7006;51.494;11.964;2022-09-23T12:23:59;3.77;;;3.17;;
13872;SDS011;7006;51.494;11.964;2022-09-23T12:26:29;4.00;;;3.33;;
13872;SDS011;7006;51.494;11.964;2022-09-23T12:28:59;5.20;;;3.07;;
13872;SDS011;7006;51.494;11.964;2022-09-23T12:31:26;4.00;;;2.90;;
13872;SDS011;7006;51.494;11.964;2022-09-23T12:33:55;3.73;;;2.80;;
13872;SDS011;7006;51.494;11.964;2022-09-23T12:36:24;4.13;;;2.70;;
13872;SDS011;7006;51.494;11.964;2022-09-23T12:38:51;3.53;;;2.83;;
13872;SDS011;7006;51.494;11.964;2022-09-23T12:41:18;3.33;;;3.03;;
13872;SDS011;7006;51.494;11.964;2022-09-23T12:43:51;4.67;;;2.80;;
13872;SDS011;7006;51.494;11.964;2022-09-23T12:46:21;2.90;;;2.53;;
13872;SDS011;7006;51.494;11.964;2022-09-23T12:49:00;2.63;;;2.33;;
13872;SDS011;7006;51.494;11.964;2022-09-23T12:51:26;3.10;;;2.40;;
13872;SDS011;7006;51.494;11.964;2022-09-23T12:53:55;3.80;;;2.70;;
13872;SDS011;7006;51.494;11.964;2022-09-23T12:56:23;4.47;;;2.50;;
13872;SDS011;7006;51.494;11.964;2022-09-23T12:58:57;2.80;;;2.40;;
13872;SDS011;7006;51.494;11.964;2022-09-23T13:01:25;3.87;;;2.73;;
13872;SDS011;7006;51.494;11.964;2022-09-23T13:03:52;3.50;;;2.90;;
13872;SDS011;7006;51.494;11.964;2022-09-23T13:06:37;3.03;;;2.30;;
13872;SDS011;7006;51.494;11.964;2022-09-23T13:09:05;3.10;;;2.47;;
13872;SDS011;7006;51.494;11.964;2022-09-23T13:11:34;3.60;;;2.70;;
13872;SDS011;7006;51.494;11.964;2022-09-23T13:14:04;3.80;;;2.70;;
13872;SDS011;7006;51.494;11.964;2022-09-23T13:16:33;3.03;;;2.53;;
13872;SDS011;7006;51.494;11.964;2022-09-23T13:19:01;3.43;;;2.43;;
13872;SDS011;7006;51.494;11.964;2022-09-23T13:24:18;7.73;;;2.93;;
13872;SDS011;7006;51.494;11.964;2022-09-23T13:26:44;3.17;;;2.40;;
13872;SDS011;7006;51.494;11.964;2022-09-23T13:29:12;3.00;;;2.47;;
13872;SDS011;7006;51.494;11.964;2022-09-23T13:31:43;5.23;;;4.00;;
13872;SDS011;7006;51.494;11.964;2022-09-23T13:34:10;3.40;;;2.60;;
13872;SDS011;7006;51.494;11.964;2022-09-23T13:36:42;2.90;;;2.33;;
13872;SDS011;7006;51.494;11.964;2022-09-23T13:39:14;2.67;;;2.10;;
13872;SDS011;7006;51.494;11.964;2022-09-23T13:41:41;3.17;;;2.20;;
13872;SDS011;7006;51.494;11.964;2022-09-23T13:44:09;3.07;;;2.07;;
13872;SDS011;7006;51.494;11.964;2022-09-23T13:46:39;2.73;;;2.20;;
13872;SDS011;7006;51.494;11.964;2022-09-23T13:49:11;3.37;;;2.23;;
13872;SDS011;7006;51.494;11.964;2022-09-23T13:51:44;3.50;;;2.10;;
13872;SDS011;7006;51.494;11.964;2022-09-23T13:54:23;2.60;;;1.90;;
13872;SDS011;7006;51.494;11.964;2022-09-23T13:56:52;4.10;;;2.00;;
13872;SDS011;7006;51.494;11.964;2022-09-23T13:59:22;3.37;;;2.17;;
13872;SDS011;7006;51.494;11.964;2022-09-23T14:01:48;3.97;;;3.20;;
13872;SDS011;7006;51.494;11.964;2022-09-23T14:04:22;2.80;;;2.47;;
13872;SDS011;7006;51.494;11.964;2022-09-23T14:06:49;7.87;;;5.00;;
13872;SDS011;7006;51.494;11.964;2022-09-23T14:09:15;6.40;;;5.57;;
13872;SDS011;7006;51.494;11.964;2022-09-23T14:11:42;3.37;;;2.17;;
13872;SDS011;7006;51.494;11.964;2022-09-23T14:14:10;4.00;;;2.00;;
13872;SDS011;7006;51.494;11.964;2022-09-23T14:16:38;3.10;;;2.30;;
13872;SDS011;7006;51.494;11.964;2022-09-23T14:19:05;2.93;;;2.03;;
13872;SDS011;7006;51.494;11.964;2022-09-23T14:21:34;2.43;;;1.70;;
13872;SDS011;7006;51.494;11.964;2022-09-23T14:24:07;3.43;;;1.93;;
13872;SDS011;7006;51.494;11.964;2022-09-23T14:26:37;2.73;;;2.03;;
13872;SDS011;7006;51.494;11.964;2022-09-23T14:29:04;6.20;;;2.30;;
13872;SDS011;7006;51.494;11.964;2022-09-23T14:31:31;3.00;;;2.33;;
13872;SDS011;7006;51.494;11.964;2022-09-23T14:33:57;7.73;;;2.40;;
13872;SDS011;7006;51.494;11.964;2022-09-23T14:36:24;2.73;;;2.20;;
13872;SDS011;7006;51.494;11.964;2022-09-23T14:39:09;2.60;;;1.80;;
13872;SDS011;7006;51.494;11.964;2022-09-23T14:41:36;4.00;;;2.50;;
13872;SDS011;7006;51.494;11.964;2022-09-23T14:44:03;2.73;;;2.20;;
13872;SDS011;7006;51.494;11.964;2022-09-23T14:46:30;3.83;;;2.10;;
13872;SDS011;7006;51.494;11.964;2022-09-23T14:48:59;2.83;;;2.33;;
13872;SDS011;7006;51.494;11.964;2022-09-23T14:54:28;4.13;;;2.13;;
13872;SDS011;7006;51.494;11.964;2022-09-23T14:56:55;2.73;;;2.27;;
13872;SDS011;7006;51.494;11.964;2022-09-23T14:59:23;3.83;;;2.60;;
13872;SDS011;7006;51.494;11.964;2022-09-23T15:01:50;2.83;;;2.13;;
13872;SDS011;7006;51.494;11.964;2022-09-23T15:04:25;3.70;;;2.47;;
13872;SDS011;7006;51.494;11.964;2022-09-23T15:06:54;4.90;;;2.53;;